Time;durP1;ratioP1;P1;durP2;ratioP2;P2;SDS_P1;SDS_P2;PMS_P1;PMS_P2;Temp;Humidity;BMP_temperature;BMP_pressure;BME280_temperature;BME280_humidity;BME280_pressure;Samples;Min_cycle;Max_cycle;Signal;HPM_P1;HPM_P2
2022/11/10 00:00:44;;;;;;;3.50;1.60;;;;;;;9.00;100.00;96208.88;5101271;28;24448;-71
2022/11/10 00:03:11;;;;;;;3.10;1.50;;;;;;;9.07;100.00;96210.25;5108118;28;24434;-71
2022/11/10 00:05:39;;;;;;;3.53;1.85;;;;;;;9.13;100.00;96207.38;5100739;28;24433;-71
2022/11/10 00:08:07;;;;;;;6.22;2.20;;;;;;;9.18;100.00;96214.88;5096187;28;21129;-71
2022/11/10 00:10:55;;;;;;;4.43;2.67;;;;;;;9.19;100.00;96212.22;5091023;28;24442;-71
2022/11/10 00:13:22;;;;;;;3.95;2.53;;;;;;;9.21;100.00;96228.47;5087872;28;20817;-71
2022/11/10 00:18:33;;;;;;;6.97;2.38;;;;;;;9.14;100.00;96223.69;5091132;28;20755;-71
2022/11/10 00:21:05;;;;;;;3.92;2.67;;;;;;;9.16;100.00;96225.31;5106378;28;21122;-71
2022/11/10 00:23:32;;;;;;;3.47;2.42;;;;;;;9.16;100.00;96224.47;5100077;28;20678;-71
2022/11/10 00:25:59;;;;;;;16.98;2.72;;;;;;;9.11;100.00;96223.84;5106280;28;25032;-71
2022/11/10 00:28:29;;;;;;;7.07;2.30;;;;;;;9.12;100.00;96217.75;5112290;28;24433;-71
2022/11/10 00:30:55;;;;;;;3.65;2.00;;;;;;;9.14;100.00;96215.94;5090889;28;20770;-71
2022/11/10 00:33:22;;;;;;;3.00;2.05;;;;;;;9.11;100.00;96216.09;5096689;28;24430;-71
2022/11/10 00:35:48;;;;;;;3.33;2.25;;;;;;;9.10;100.00;96217.03;5098772;28;21145;-71
2022/11/10 00:38:15;;;;;;;2.13;1.80;;;;;;;9.09;100.00;96216.19;5096534;28;20788;-71
2022/11/10 00:40:41;;;;;;;2.60;1.58;;;;;;;8.95;100.00;96226.34;5104946;28;24438;-71
2022/11/10 00:43:08;;;;;;;1.80;1.40;;;;;;;8.89;100.00;96227.47;5095918;28;20770;-71
2022/11/10 00:45:36;;;;;;;2.58;1.60;;;;;;;8.84;100.00;96231.22;5094956;28;24442;-71
2022/11/10 00:48:02;;;;;;;2.42;1.75;;;;;;;8.74;100.00;96233.41;5100008;28;20826;-71
2022/11/10 00:50:29;;;;;;;2.67;1.40;;;;;;;8.71;100.00;96239.56;5104104;28;20777;-71
2022/11/10 00:52:55;;;;;;;2.42;1.42;;;;;;;8.64;100.00;96238.19;5096306;28;24438;-71
2022/11/10 00:55:22;;;;;;;2.53;1.20;;;;;;;8.59;100.00;96240.13;5101694;28;24445;-71
2022/11/10 00:57:48;;;;;;;3.42;1.30;;;;;;;8.56;100.00;96247.19;5095054;28;24995;-71
2022/11/10 01:00:15;;;;;;;3.60;1.70;;;;;;;8.44;100.00;96241.69;5103487;28;20781;-71
2022/11/10 01:02:43;;;;;;;3.80;1.30;;;;;;;8.38;100.00;96251.44;5108468;28;24434;-71
2022/11/10 01:05:09;;;;;;;2.47;1.08;;;;;;;8.28;100.00;96253.59;5099508;28;21367;-71
2022/11/10 01:07:36;;;;;;;2.60;1.10;;;;;;;8.24;100.00;96262.41;5102088;28;24426;-71
2022/11/10 01:10:03;;;;;;;2.70;1.20;;;;;;;8.24;100.00;96262.41;5107559;28;24995;-71
2022/11/10 01:12:30;;;;;;;2.80;1.15;;;;;;;8.35;100.00;96270.47;5106941;28;24440;-71
2022/11/10 01:14:57;;;;;;;13.00;1.10;;;;;;;8.66;100.00;96269.91;5098626;28;24479;-71
2022/11/10 01:17:23;;;;;;;14.40;0.87;;;;;;;8.70;100.00;96281.78;5102299;28;20785;-71
2022/11/10 01:19:51;;;;;;;12.93;0.90;;;;;;;8.47;100.00;96284.59;5102429;28;25030;-71
2022/11/10 01:22:17;;;;;;;2.40;1.00;;;;;;;8.20;100.00;96284.09;5106370;28;21406;-71
2022/11/10 01:24:44;;;;;;;6.15;1.70;;;;;;;8.19;100.00;96293.56;5095756;28;24431;-71
2022/11/10 01:27:10;;;;;;;2.10;1.00;;;;;;;8.14;100.00;96292.94;5101976;28;24971;-71
2022/11/10 01:29:37;;;;;;;4.25;1.60;;;;;;;8.00;100.00;96290.13;5105944;28;24436;-71
2022/11/10 01:32:04;;;;;;;2.72;1.40;;;;;;;8.06;100.00;96294.19;5098315;28;24430;-71
2022/11/10 01:34:30;;;;;;;3.53;1.70;;;;;;;8.11;100.00;96305.97;5093290;28;24438;-71
2022/11/10 01:36:58;;;;;;;3.00;1.60;;;;;;;7.97;100.00;96303.16;5100835;28;24461;-71
2022/11/10 01:39:25;;;;;;;4.55;1.27;;;;;;;7.94;100.00;96303.31;5104180;28;20825;-71
2022/11/10 01:41:51;;;;;;;2.30;1.45;;;;;;;8.03;100.00;96310.63;5096420;28;24807;-71
2022/11/10 01:44:20;;;;;;;2.00;1.17;;;;;;;8.10;100.00;96319.78;5103758;28;24445;-71
2022/11/10 01:46:47;;;;;;;4.07;1.70;;;;;;;8.16;100.00;96316.94;5103507;28;24430;-71
2022/11/10 01:49:17;;;;;;;3.58;1.33;;;;;;;8.14;100.00;96313.56;5097811;28;24444;-71
2022/11/10 01:51:49;;;;;;;2.58;1.17;;;;;;;7.99;100.00;96325.41;5106019;28;20770;-71
2022/11/10 01:54:20;;;;;;;2.30;1.27;;;;;;;7.91;100.00;96312.00;5089852;28;20740;-71
2022/11/10 01:56:50;;;;;;;3.65;1.38;;;;;;;7.92;100.00;96313.66;5098203;28;20699;-71
2022/11/10 01:59:22;;;;;;;2.90;1.35;;;;;;;7.99;100.00;96312.50;5097966;28;20822;-71
2022/11/10 02:01:52;;;;;;;2.55;1.20;;;;;;;7.98;100.00;96305.69;5092316;28;24434;-71
2022/11/10 02:04:20;;;;;;;4.80;1.40;;;;;;;8.03;100.00;96310.63;5091198;28;20754;-71
2022/11/10 02:06:49;;;;;;;4.20;1.10;;;;;;;8.02;100.00;96315.88;5097790;28;20828;-71
2022/11/10 02:09:18;;;;;;;4.38;1.30;;;;;;;8.00;100.00;96314.16;5102173;28;20825;-71
2022/11/10 02:11:46;;;;;;;3.97;1.50;;;;;;;7.90;100.00;96320.66;5092961;28;24606;-71
2022/11/10 02:14:13;;;;;;;13.52;1.67;;;;;;;7.89;100.00;96325.88;5092802;28;20798;-71
2022/11/10 02:16:41;;;;;;;1.87;1.03;;;;;;;7.78;100.00;96328.91;5098357;28;24438;-71
2022/11/10 02:19:14;;;;;;;6.68;1.30;;;;;;;7.76;100.00;96330.72;5103569;28;20789;-71
2022/11/10 02:21:42;;;;;;;4.25;1.10;;;;;;;7.71;100.00;96330.94;5097703;28;24430;-71
2022/11/10 02:24:08;;;;;;;5.35;1.05;;;;;;;7.66;100.00;96334.59;5097077;28;24434;-71
2022/11/10 02:26:39;;;;;;;45.63;2.15;;;;;;;7.43;100.00;96343.28;5097085;28;24440;-71
2022/11/10 02:29:05;;;;;;;32.58;1.30;;;;;;;7.37;100.00;96346.09;5092979;28;20805;-71
2022/11/10 02:31:32;;;;;;;4.13;0.73;;;;;;;7.43;100.00;96338.13;5101096;28;24475;-71
2022/11/10 02:33:58;;;;;;;4.47;1.02;;;;;;;7.37;100.00;96341.78;5092512;28;24438;-71
2022/11/10 02:36:25;;;;;;;2.88;1.00;;;;;;;7.43;100.00;96357.00;5104613;28;24438;-71
2022/11/10 02:38:53;;;;;;;3.78;1.20;;;;;;;7.29;100.00;96346.41;5091457;28;24454;-71
2022/11/10 02:41:19;;;;;;;2.13;1.05;;;;;;;7.37;100.00;96354.66;5103233;28;24437;-71
2022/11/10 02:43:46;;;;;;;6.18;1.20;;;;;;;7.32;100.00;96358.34;5090411;28;24434;-71
2022/11/10 02:46:12;;;;;;;2.08;1.05;;;;;;;7.44;100.00;96357.84;5098015;28;24437;-71
2022/11/10 02:48:39;;;;;;;2.85;1.15;;;;;;;7.41;100.00;96355.38;5097060;28;24434;-71
2022/11/10 02:51:06;;;;;;;5.45;1.42;;;;;;;7.43;100.00;96354.41;5085926;28;24430;-71
2022/11/10 02:53:32;;;;;;;9.00;1.80;;;;;;;7.52;100.00;96355.78;5081386;28;20965;-71
2022/11/10 02:56:00;;;;;;;3.97;1.77;;;;;;;7.51;100.00;96356.69;5091959;28;20781;-71
2022/11/10 02:58:27;;;;;;;40.00;1.70;;;;;;;7.31;100.00;96364.41;5085850;28;20823;-71
2022/11/10 03:00:53;;;;;;;62.35;2.75;;;;;;;7.06;100.00;96369.69;5103417;28;25091;-71
2022/11/10 03:03:20;;;;;;;42.08;1.88;;;;;;;6.89;100.00;96376.31;5108005;28;24440;-71
2022/11/10 03:05:46;;;;;;;3.35;1.05;;;;;;;6.86;100.00;96384.19;5099128;28;24449;-71
2022/11/10 03:08:13;;;;;;;47.45;1.55;;;;;;;6.81;100.00;96382.66;5097965;28;24430;-71
2022/11/10 03:10:39;;;;;;;5.40;0.80;;;;;;;6.94;100.00;96386.47;5105171;28;25002;-71
2022/11/10 03:13:07;;;;;;;10.02;1.13;;;;;;;6.97;100.00;96381.16;5094367;28;24447;-71
2022/11/10 03:15:33;;;;;;;28.08;1.13;;;;;;;6.93;100.00;96389.91;5090009;28;24437;-71
2022/11/10 03:18:03;;;;;;;21.85;0.80;;;;;;;7.02;100.00;96395.56;5095150;28;24481;-70
2022/11/10 03:20:30;;;;;;;11.88;0.90;;;;;;;7.01;100.00;96399.03;5103683;28;20810;-70
2022/11/10 03:23:01;;;;;;;5.50;0.50;;;;;;;7.02;100.00;96395.56;5087660;28;25049;-70
2022/11/10 03:25:27;;;;;;;9.20;0.50;;;;;;;6.90;100.00;96393.47;5092125;28;24434;-71
2022/11/10 03:27:54;;;;;;;18.08;0.52;;;;;;;6.85;100.00;96397.94;5090985;28;24438;-71
2022/11/10 03:30:21;;;;;;;23.58;1.08;;;;;;;6.69;100.00;96402.81;5083581;28;24844;-70
2022/11/10 03:32:48;;;;;;;12.50;0.68;;;;;;;6.68;100.00;96413.19;5098656;28;25003;-71
2022/11/10 03:35:15;;;;;;;6.82;0.50;;;;;;;6.75;100.00;96415.47;5104028;28;24444;-71
2022/11/10 03:37:41;;;;;;;2.55;0.47;;;;;;;6.85;100.00;96418.53;5095547;28;24453;-70
2022/11/10 03:40:09;;;;;;;5.68;0.60;;;;;;;6.78;100.00;96419.66;5100785;28;26227;-70
2022/11/10 03:42:35;;;;;;;2.90;0.52;;;;;;;6.89;100.00;96425.25;5107929;28;24452;-71
2022/11/10 03:45:02;;;;;;;6.10;0.70;;;;;;;6.84;100.00;96427.16;5095790;28;24437;-71
2022/11/10 03:47:30;;;;;;;7.30;1.00;;;;;;;6.60;100.00;96422.91;5100696;28;24429;-71
2022/11/10 03:49:56;;;;;;;7.28;0.60;;;;;;;6.51;100.00;96432.66;5099635;28;24440;-71
2022/11/10 03:52:23;;;;;;;1.70;0.65;;;;;;;6.41;100.00;96445.91;5103911;28;24440;-71
2022/11/10 03:54:49;;;;;;;3.50;0.60;;;;;;;6.40;100.00;96439.91;5106359;28;20774;-71
2022/11/10 03:57:16;;;;;;;0.40;0.40;;;;;;;6.48;100.00;96448.19;5098523;28;25038;-70
2022/11/10 03:59:42;;;;;;;3.40;0.68;;;;;;;6.43;100.00;96450.09;5105516;28;24440;-71
2022/11/10 04:02:09;;;;;;;1.55;0.65;;;;;;;6.46;100.00;96452.56;5100120;28;24803;-70
2022/11/10 04:10:06;;;;;;;15.77;0.70;;;;;;;6.26;100.00;96452.41;5086536;28;24445;-72
2022/11/10 04:20:43;;;;;;;3.20;0.40;;;;;;;6.19;100.00;96463.81;5103264;28;24437;-71
2022/11/10 04:23:27;;;;;;;2.63;0.70;;;;;;;5.94;100.00;96477.50;5091583;28;24438;-70
2022/11/10 04:28:44;;;;;;;30.33;1.70;;;;;;;5.69;100.00;96485.13;5093012;28;24441;-71
2022/11/10 04:31:12;;;;;;;3.20;1.00;;;;;;;5.79;100.00;96485.69;5085081;28;24441;-71
2022/11/10 04:33:40;;;;;;;17.55;1.45;;;;;;;5.87;100.00;96494.00;5099650;28;24437;-70
2022/11/10 04:36:09;;;;;;;47.15;2.22;;;;;;;5.77;100.00;96503.72;5091041;28;24528;-71
2022/11/10 04:38:35;;;;;;;23.10;1.33;;;;;;;5.70;100.00;96506.53;5105949;28;24526;-71
2022/11/10 04:41:02;;;;;;;50.55;2.10;;;;;;;5.63;100.00;96515.31;5101945;28;24437;-71
2022/11/10 04:43:29;;;;;;;26.13;1.38;;;;;;;5.78;100.00;96499.41;5089841;28;24442;-71
2022/11/10 04:45:56;;;;;;;15.55;1.10;;;;;;;5.87;100.00;96503.44;5088630;28;24426;-71
2022/11/10 04:48:23;;;;;;;18.13;1.30;;;;;;;5.91;100.00;96515.31;5099958;28;24430;-71
2022/11/10 04:50:50;;;;;;;14.27;1.10;;;;;;;5.77;100.00;96523.44;5105830;28;24445;-71
2022/11/10 04:53:19;;;;;;;9.43;0.90;;;;;;;5.83;100.00;96523.25;5108455;28;24434;-71
2022/11/10 04:55:46;;;;;;;19.00;0.90;;;;;;;5.94;100.00;96525.53;5110147;28;24495;-71
2022/11/10 04:58:14;;;;;;;45.65;1.40;;;;;;;6.01;100.00;96527.84;5101638;28;24999;-70
2022/11/10 05:00:41;;;;;;;8.70;1.00;;;;;;;6.15;100.00;96535.09;5110470;28;24531;-72
2022/11/10 05:03:11;;;;;;;12.33;1.17;;;;;;;6.21;100.00;96539.19;5104937;28;24457;-71
2022/11/10 05:05:37;;;;;;;7.80;0.83;;;;;;;6.28;100.00;96535.53;5109985;28;24432;-71
2022/11/10 05:08:04;;;;;;;9.10;1.00;;;;;;;6.34;100.00;96545.63;5102049;28;24822;-71
2022/11/10 05:10:32;;;;;;;2.97;1.10;;;;;;;6.38;100.00;96536.91;5107148;28;25035;-71
2022/11/10 05:12:59;;;;;;;8.82;1.25;;;;;;;6.32;100.00;96539.69;5109162;28;24784;-71
2022/11/10 05:15:26;;;;;;;13.32;1.30;;;;;;;6.32;100.00;96537.09;5107061;28;24429;-71
2022/11/10 05:17:54;;;;;;;20.88;1.02;;;;;;;6.34;100.00;96542.19;5091645;28;24995;-71
2022/11/10 05:20:22;;;;;;;6.10;0.70;;;;;;;6.32;100.00;96547.41;5090621;28;25014;-72
2022/11/10 05:25:30;;;;;;;7.55;0.77;;;;;;;6.37;100.00;96554.97;5093804;28;24491;-72
2022/11/10 05:27:58;;;;;;;15.02;0.80;;;;;;;6.33;100.00;96550.81;5096362;28;24435;-72
2022/11/10 05:30:25;;;;;;;20.10;0.90;;;;;;;6.22;100.00;96558.88;5095747;28;24465;-72
2022/11/10 05:32:51;;;;;;;8.50;0.63;;;;;;;6.14;100.00;96553.16;5101963;28;24433;-72
2022/11/10 05:35:18;;;;;;;16.27;0.60;;;;;;;6.09;100.00;96558.44;5103319;28;24429;-72
2022/11/10 05:37:44;;;;;;;21.20;0.80;;;;;;;6.18;100.00;96565.00;5105910;28;24484;-72
2022/11/10 05:40:11;;;;;;;6.23;0.53;;;;;;;6.19;100.00;96569.25;5105747;28;24430;-72
2022/11/10 05:42:43;;;;;;;30.30;0.90;;;;;;;5.94;100.00;96569.22;5102627;28;24431;-72
2022/11/10 05:45:11;;;;;;;36.85;1.10;;;;;;;5.90;100.00;96571.03;5106239;28;24877;-72
2022/11/10 05:47:38;;;;;;;31.23;0.90;;;;;;;6.01;100.00;96570.72;5102476;28;24441;-72
2022/11/10 05:50:06;;;;;;;38.42;1.38;;;;;;;6.02;100.00;96573.22;5100818;28;24441;-72
2022/11/10 05:52:33;;;;;;;39.90;1.08;;;;;;;5.93;100.00;96560.69;5099922;28;24970;-72
2022/11/10 05:54:59;;;;;;;38.72;1.13;;;;;;;5.83;100.00;96575.50;5107587;28;24425;-72
2022/11/10 05:57:26;;;;;;;8.15;0.40;;;;;;;5.92;100.00;96583.81;5102952;28;24433;-72
2022/11/10 05:59:52;;;;;;;10.77;0.95;;;;;;;6.01;100.00;96579.28;5100016;28;24434;-72
2022/11/10 06:02:20;;;;;;;34.75;1.20;;;;;;;5.98;100.00;96584.50;5106758;28;25001;-72
2022/11/10 06:04:47;;;;;;;8.98;0.60;;;;;;;6.01;100.00;96588.72;5103254;28;24437;-72
2022/11/10 06:07:13;;;;;;;14.63;0.82;;;;;;;6.06;100.00;96597.13;5099847;28;24811;-72
2022/11/10 06:09:40;;;;;;;36.42;1.38;;;;;;;6.05;100.00;96601.44;5100127;28;24453;-72
2022/11/10 06:12:07;;;;;;;10.00;0.80;;;;;;;5.95;100.00;96615.44;5102830;28;24844;-72
2022/11/10 06:14:33;;;;;;;8.95;0.80;;;;;;;5.81;100.00;96612.44;5093297;28;24959;-72
2022/11/10 06:17:00;;;;;;;8.80;0.77;;;;;;;5.77;100.00;96615.97;5098576;28;24438;-72
2022/11/10 06:19:28;;;;;;;2.72;1.00;;;;;;;5.74;100.00;96629.75;5098228;28;24824;-72
2022/11/10 06:21:54;;;;;;;8.77;1.60;;;;;;;5.61;100.00;96635.31;5091168;28;24437;-72
2022/11/10 06:24:21;;;;;;;12.10;1.50;;;;;;;5.48;100.00;96643.38;5106346;28;24788;-72
2022/11/10 06:26:47;;;;;;;11.00;1.17;;;;;;;5.48;100.00;96639.97;5097480;28;24438;-72
2022/11/10 06:29:14;;;;;;;6.90;1.20;;;;;;;5.44;100.00;96644.34;5089656;28;24796;-72
2022/11/10 06:31:40;;;;;;;3.28;0.73;;;;;;;5.43;100.00;96645.25;5088824;28;24434;-72
2022/11/10 06:34:07;;;;;;;6.78;1.25;;;;;;;5.37;100.00;96662.56;5102813;28;24437;-72
2022/11/10 06:36:35;;;;;;;13.32;1.52;;;;;;;5.34;100.00;96664.34;5089077;28;24488;-71
2022/11/10 06:39:01;;;;;;;5.00;1.20;;;;;;;5.40;100.00;96673.59;5101411;28;24453;-72
2022/11/10 06:41:28;;;;;;;2.40;0.90;;;;;;;5.48;100.00;96681.91;5104820;28;25082;-72
2022/11/10 06:43:54;;;;;;;2.30;0.90;;;;;;;5.49;100.00;96688.75;5109435;28;24440;-71
2022/11/10 06:46:21;;;;;;;12.32;1.17;;;;;;;5.46;100.00;96688.84;5101404;28;24801;-72
2022/11/10 06:48:47;;;;;;;5.00;0.93;;;;;;;5.56;100.00;96690.28;5109378;28;24429;-72
2022/11/10 06:51:14;;;;;;;27.17;1.60;;;;;;;5.65;100.00;96696.03;5105227;28;25078;-72
2022/11/10 06:53:42;;;;;;;8.75;1.40;;;;;;;5.59;100.00;96697.88;5109894;28;24426;-73
2022/11/10 06:56:08;;;;;;;1.50;0.80;;;;;;;5.63;100.00;96710.63;5102338;28;24968;-72
2022/11/10 06:58:35;;;;;;;6.25;1.02;;;;;;;5.66;100.00;96721.66;5100328;28;24460;-72
2022/11/10 07:01:02;;;;;;;6.80;1.52;;;;;;;5.74;100.00;96731.72;5096202;28;24440;-72
2022/11/10 07:03:28;;;;;;;8.95;1.70;;;;;;;5.80;100.00;96737.56;5110509;28;24437;-72
2022/11/10 07:05:55;;;;;;;38.15;3.00;;;;;;;5.79;100.00;96733.31;5109659;28;24435;-71
2022/11/10 07:08:21;;;;;;;16.33;1.70;;;;;;;5.88;100.00;96732.19;5101711;28;24426;-72
2022/11/10 07:10:54;;;;;;;10.65;1.10;;;;;;;5.82;100.00;96737.50;5108244;28;24465;-71
2022/11/10 07:13:21;;;;;;;14.23;1.77;;;;;;;5.78;100.00;96753.91;5105137;28;24823;-71
2022/11/10 07:15:47;;;;;;;6.60;1.17;;;;;;;5.77;100.00;96740.19;5109254;28;24425;-72
2022/11/10 07:18:14;;;;;;;3.47;1.17;;;;;;;5.76;100.00;96741.09;5104184;28;25066;-71
2022/11/10 07:20:41;;;;;;;13.85;1.38;;;;;;;5.76;100.00;96751.38;5112855;28;24983;-71
2022/11/10 07:23:08;;;;;;;10.85;1.60;;;;;;;5.74;100.00;96748.00;5100965;28;24789;-71
2022/11/10 07:25:36;;;;;;;11.95;1.60;;;;;;;5.73;100.00;96750.63;5108021;28;24436;-71
2022/11/10 07:28:06;;;;;;;4.20;1.07;;;;;;;5.80;100.00;96755.53;5105891;28;24800;-71
2022/11/10 07:30:35;;;;;;;23.70;1.63;;;;;;;5.85;100.00;96768.25;5111956;28;24795;-71
2022/11/10 07:33:05;;;;;;;14.55;1.20;;;;;;;5.93;100.00;96768.94;5091577;28;24422;-71
2022/11/10 07:35:32;;;;;;;13.27;1.47;;;;;;;6.00;100.00;96770.44;5113226;28;24429;-71
2022/11/10 07:38:02;;;;;;;19.17;1.90;;;;;;;6.00;100.00;96787.59;5105052;28;24437;-71
2022/11/10 07:40:29;;;;;;;12.18;1.10;;;;;;;5.90;100.00;96784.41;5107717;28;24436;-71
2022/11/10 07:42:55;;;;;;;2.03;0.83;;;;;;;5.95;100.00;96785.16;5102370;28;25087;-71
2022/11/10 07:45:23;;;;;;;6.83;1.03;;;;;;;5.89;100.00;96784.44;5112663;28;24426;-71
2022/11/10 07:47:50;;;;;;;13.13;1.20;;;;;;;5.99;100.00;96783.34;5107339;28;24430;-71
2022/11/10 07:50:17;;;;;;;5.30;1.10;;;;;;;6.10;100.00;96790.75;5097727;28;25043;-71
2022/11/10 07:52:43;;;;;;;4.53;1.10;;;;;;;6.13;100.00;96795.81;5090688;28;24451;-72
2022/11/10 07:55:10;;;;;;;13.77;1.05;;;;;;;5.92;100.00;96803.22;5096097;28;24982;-72
2022/11/10 07:57:36;;;;;;;22.83;1.40;;;;;;;6.05;100.00;96807.16;5104512;28;24804;-71
2022/11/10 08:00:03;;;;;;;20.20;1.20;;;;;;;6.17;100.00;96808.53;5107283;28;25002;-71
2022/11/10 08:02:31;;;;;;;9.75;1.10;;;;;;;6.17;100.00;96810.25;5099358;28;24441;-71
2022/11/10 08:04:58;;;;;;;40.47;1.73;;;;;;;6.21;100.00;96815.28;5108895;28;24517;-71
2022/11/10 08:07:24;;;;;;;26.23;1.30;;;;;;;6.15;100.00;96818.00;5104838;28;24526;-71
2022/11/10 08:09:51;;;;;;;4.40;1.00;;;;;;;6.29;100.00;96809.91;5109119;28;24522;-71
2022/11/10 08:12:17;;;;;;;29.50;2.00;;;;;;;6.01;100.00;96815.84;5099578;28;24522;-71
2022/11/10 08:14:44;;;;;;;22.60;1.55;;;;;;;6.04;100.00;96831.19;5101609;28;24433;-71
2022/11/10 08:17:10;;;;;;;14.48;1.85;;;;;;;5.99;100.00;96827.06;5107235;28;24425;-71
2022/11/10 08:19:38;;;;;;;14.38;1.60;;;;;;;6.03;100.00;96826.91;5112104;28;24836;-71
2022/11/10 08:22:05;;;;;;;15.65;1.70;;;;;;;6.07;100.00;96825.94;5094425;28;24444;-71
2022/11/10 08:24:31;;;;;;;9.00;1.30;;;;;;;6.08;100.00;96831.94;5112040;28;24440;-71
2022/11/10 08:26:58;;;;;;;9.15;1.38;;;;;;;6.17;100.00;96833.41;5100381;28;24788;-71
2022/11/10 08:29:24;;;;;;;5.57;1.65;;;;;;;6.37;100.00;96828.53;5104451;28;24441;-71
2022/11/10 08:31:52;;;;;;;26.40;2.00;;;;;;;6.46;100.00;96830.84;5105946;28;24457;-71
2022/11/10 08:34:18;;;;;;;15.70;2.22;;;;;;;6.53;100.00;96834.09;5105131;28;24441;-71
2022/11/10 08:36:46;;;;;;;20.20;2.40;;;;;;;6.46;100.00;96841.13;5107383;28;24788;-71
2022/11/10 08:39:13;;;;;;;35.17;2.60;;;;;;;6.41;100.00;96839.56;5104264;28;24513;-71
2022/11/10 08:41:39;;;;;;;13.48;2.30;;;;;;;6.48;100.00;96844.50;5102476;28;24441;-71
2022/11/10 08:44:06;;;;;;;57.58;3.50;;;;;;;6.39;100.00;96842.19;5108483;28;24426;-71
2022/11/10 08:46:32;;;;;;;24.50;2.80;;;;;;;6.56;100.00;96844.25;5102470;28;24425;-71
2022/11/10 08:48:59;;;;;;;11.00;2.08;;;;;;;6.76;100.00;96847.09;5100405;28;24971;-71
2022/11/10 08:51:25;;;;;;;44.28;4.10;;;;;;;6.68;100.00;96850.81;5105122;28;24426;-71
2022/11/10 08:53:53;;;;;;;20.83;2.45;;;;;;;6.77;100.00;96860.81;5111236;28;24448;-71
2022/11/10 08:56:20;;;;;;;25.48;2.53;;;;;;;6.75;100.00;96860.88;5102000;28;24433;-71
2022/11/10 08:58:46;;;;;;;2.78;1.75;;;;;;;6.89;100.00;96865.56;5100023;28;24469;-71
2022/11/10 09:01:13;;;;;;;27.98;2.67;;;;;;;6.81;100.00;96862.41;5107414;28;24819;-71
2022/11/10 09:03:39;;;;;;;27.27;2.42;;;;;;;6.72;100.00;96860.97;5099227;28;25010;-71
2022/11/10 09:06:06;;;;;;;16.00;2.40;;;;;;;6.96;100.00;96866.22;5088495;28;24425;-71
2022/11/10 09:08:33;;;;;;;2.85;1.80;;;;;;;7.07;100.00;96871.91;5103599;28;24430;-71
2022/11/10 09:11:03;;;;;;;11.40;1.80;;;;;;;7.14;100.00;96872.56;5101000;28;24486;-71
2022/11/10 09:13:29;;;;;;;2.67;1.55;;;;;;;7.47;100.00;96865.47;5104127;28;24834;-71
2022/11/10 09:15:57;;;;;;;2.40;1.53;;;;;;;7.83;100.00;96867.72;5107077;28;24486;-71
2022/11/10 09:18:23;;;;;;;10.23;2.10;;;;;;;7.76;100.00;96869.66;5104081;28;24434;-71
2022/11/10 09:20:50;;;;;;;4.25;1.88;;;;;;;7.76;100.00;96878.22;5092810;28;24438;-71
2022/11/10 09:23:18;;;;;;;4.57;1.80;;;;;;;7.93;100.00;96871.63;5104657;28;24793;-71
2022/11/10 09:25:50;;;;;;;3.55;1.95;;;;;;;8.06;100.00;96874.66;5108746;28;20764;-71
2022/11/10 09:28:19;;;;;;;3.53;1.90;;;;;;;8.22;100.00;96881.78;5105178;28;20708;-71
2022/11/10 09:30:47;;;;;;;6.32;1.63;;;;;;;8.37;100.00;96888.16;5101698;28;20759;-71
2022/11/10 09:33:13;;;;;;;9.00;1.88;;;;;;;8.61;100.00;96891.59;5105932;28;20831;-71
2022/11/10 09:35:40;;;;;;;2.22;1.60;;;;;;;8.75;100.00;96891.09;5098609;28;20779;-71
2022/11/10 09:38:07;;;;;;;2.40;1.70;;;;;;;9.02;100.00;96888.34;5093836;28;20766;-71
2022/11/10 09:40:49;;;;;;;4.55;2.05;;;;;;;8.93;100.00;96902.44;5104036;28;24458;-71
2022/11/10 09:43:24;;;;;;;6.50;1.90;;;;;;;8.92;100.00;96904.19;5100676;28;20810;-71
2022/11/10 09:45:55;;;;;;;2.28;1.83;;;;;;;9.33;100.00;96906.06;5102389;28;20849;-71
2022/11/10 09:48:25;;;;;;;2.58;1.83;;;;;;;9.23;100.00;96907.34;5099986;28;20728;-71
2022/11/10 09:50:57;;;;;;;3.85;2.10;;;;;;;9.33;100.00;96914.66;5100483;28;20799;-71
2022/11/10 09:53:31;;;;;;;2.88;2.17;;;;;;;9.63;100.00;96922.09;5092574;28;20886;-71
2022/11/10 09:56:02;;;;;;;3.88;2.15;;;;;;;9.79;100.00;96928.34;5101864;28;20762;-71
2022/11/10 09:58:36;;;;;;;5.90;2.40;;;;;;;10.23;100.00;96922.19;5103594;28;24434;-71
2022/11/10 10:01:14;;;;;;;3.08;1.92;;;;;;;10.46;100.00;96932.44;5093356;28;24440;-71
2022/11/10 10:03:47;;;;;;;3.80;1.73;;;;;;;10.18;100.00;96919.81;5099305;28;24985;-71
2022/11/10 10:06:16;;;;;;;3.65;1.60;;;;;;;10.73;100.00;96927.78;5090163;28;24422;-71
2022/11/10 10:09:03;;;;;;;3.08;1.60;;;;;;;10.92;100.00;96934.72;5089986;28;24422;-71
2022/11/10 10:11:43;;;;;;;3.23;1.70;;;;;;;10.70;100.00;96927.91;5101545;28;24430;-71
2022/11/10 10:14:24;;;;;;;2.30;1.27;;;;;;;10.63;100.00;96929.94;5097963;28;24425;-71
2022/11/10 10:16:59;;;;;;;3.75;1.50;;;;;;;10.79;100.00;96935.28;5099675;28;24430;-71
2022/11/10 10:19:37;;;;;;;3.60;1.42;;;;;;;11.21;100.00;96925.59;5107200;28;24464;-71
2022/11/10 10:22:20;;;;;;;5.43;1.55;;;;;;;11.54;100.00;96931.78;5104200;28;24425;-71
2022/11/10 10:24:48;;;;;;;3.75;1.42;;;;;;;11.58;100.00;96940.25;5106972;28;24435;-71
2022/11/10 10:27:21;;;;;;;6.22;1.90;;;;;;;11.38;100.00;96933.41;5096729;28;24520;-71
2022/11/10 10:29:49;;;;;;;3.35;1.90;;;;;;;11.39;100.00;96933.34;5097867;28;24433;-71
2022/11/10 10:32:17;;;;;;;3.95;1.60;;;;;;;11.10;100.00;96936.47;5095936;28;24792;-72
2022/11/10 10:34:45;;;;;;;4.65;1.63;;;;;;;11.25;100.00;96935.75;5105085;28;24425;-71
2022/11/10 10:37:22;;;;;;;4.68;1.30;;;;;;;11.46;100.00;96944.28;5097950;28;24429;-71
2022/11/10 10:39:52;;;;;;;4.43;1.45;;;;;;;11.57;100.00;96931.66;5099617;28;24519;-71
2022/11/10 10:42:29;;;;;;;5.60;1.88;;;;;;;11.62;100.00;96939.19;5104444;28;24434;-71
2022/11/10 10:45:22;;;;;;;4.47;1.70;;;;;;;11.49;100.00;96928.56;5108163;28;24468;-71
2022/11/10 10:47:50;;;;;;;3.63;1.42;;;;;;;11.72;100.00;96924.88;5100271;28;24433;-71
2022/11/10 10:50:24;;;;;;;4.43;1.63;;;;;;;11.52;100.00;96943.13;5100509;28;24425;-71
2022/11/10 10:53:12;;;;;;;3.92;1.27;;;;;;;12.00;100.00;96929.56;5101278;28;24426;-71
2022/11/10 10:55:44;;;;;;;3.70;1.37;;;;;;;11.92;100.00;96923.91;5109683;28;24422;-71
2022/11/10 10:58:20;;;;;;;4.15;1.30;;;;;;;12.07;100.00;96925.72;5100941;28;24430;-71
2022/11/10 11:00:50;;;;;;;3.10;1.20;;;;;;;11.98;100.00;96920.19;5102806;28;24457;-71
2022/11/10 11:03:25;;;;;;;2.53;1.07;;;;;;;11.98;100.00;96918.41;5103019;28;24503;-71
2022/11/10 11:06:07;;;;;;;3.60;1.20;;;;;;;12.04;100.00;96920.69;5101933;28;24432;-71
2022/11/10 11:08:34;;;;;;;5.37;1.20;;;;;;;12.10;100.00;96922.16;5076449;28;24990;-71
2022/11/10 11:11:09;;;;;;;2.40;1.20;;;;;;;12.31;100.00;96934.06;5105749;28;25029;-71
2022/11/10 11:13:35;;;;;;;10.73;1.23;;;;;;;12.11;100.00;96939.41;5105250;28;24438;-71
2022/11/10 11:16:06;;;;;;;3.35;1.23;;;;;;;12.06;100.00;96933.63;5098297;28;24800;-71
2022/11/10 11:18:35;;;;;;;4.93;1.17;;;;;;;12.18;100.00;96927.78;5093236;28;24437;-71
2022/11/10 11:21:08;;;;;;;8.52;1.40;;;;;;;12.36;100.00;96933.81;5108302;28;24465;-71
2022/11/10 11:23:46;;;;;;;3.45;1.42;;;;;;;12.39;100.00;96925.03;5093308;28;24637;-71
2022/11/10 11:26:19;;;;;;;3.70;1.45;;;;;;;12.12;100.00;96917.69;5095472;28;24429;-71
2022/11/10 11:28:57;;;;;;;3.17;1.15;;;;;;;12.20;100.00;96925.97;5102367;28;24426;-71
2022/11/10 11:31:35;;;;;;;2.95;1.17;;;;;;;11.97;100.00;96932.28;5104815;28;24432;-71
2022/11/10 11:34:09;;;;;;;7.33;1.50;;;;;;;11.82;100.00;96926.06;5093632;28;24426;-71
2022/11/10 11:36:43;;;;;;;4.20;1.40;;;;;;;11.74;100.00;96925.63;5106318;28;24426;-71
2022/11/10 11:39:22;;;;;;;3.33;1.27;;;;;;;11.75;100.00;96926.44;5072331;28;24781;-71
2022/11/10 11:41:58;;;;;;;4.05;1.20;;;;;;;12.00;100.00;96918.34;5085174;28;24426;-71
2022/11/10 11:44:42;;;;;;;3.90;1.10;;;;;;;11.70;100.00;96920.66;5103842;28;24978;-71
2022/11/10 11:47:25;;;;;;;2.97;0.95;;;;;;;11.73;100.00;96926.53;5096481;28;24436;-71
2022/11/10 11:50:07;;;;;;;2.63;1.20;;;;;;;11.74;100.00;96917.84;5109628;28;24434;-71
2022/11/10 11:52:40;;;;;;;4.75;1.10;;;;;;;11.96;100.00;96924.59;5096663;28;24436;-71
2022/11/10 11:55:19;;;;;;;2.75;1.27;;;;;;;12.18;100.00;96927.78;5085925;28;24438;-71
2022/11/10 11:58:01;;;;;;;2.40;1.10;;;;;;;11.89;100.00;96929.25;5094837;28;24466;-71